sensor_id;sensor_type;location;lat;lon;timestamp;P1;durP1;ratioP1;P2;durP2;ratioP2
15216;SDS011;7711;46.634;14.318;2022-07-05T00:00:58;6.68;;;6.07;;
15216;SDS011;7711;46.634;14.318;2022-07-05T00:03:25;9.40;;;6.38;;
15216;SDS011;7711;46.634;14.318;2022-07-05T00:05:53;11.65;;;6.38;;
15216;SDS011;7711;46.634;14.318;2022-07-05T00:08:21;9.30;;;6.57;;
15216;SDS011;7711;46.634;14.318;2022-07-05T00:10:49;9.02;;;6.50;;
15216;SDS011;7711;46.634;14.318;2022-07-05T00:13:17;9.68;;;6.05;;
15216;SDS011;7711;46.634;14.318;2022-07-05T00:15:44;6.78;;;6.07;;
15216;SDS011;7711;46.634;14.318;2022-07-05T00:18:13;7.55;;;6.25;;
15216;SDS011;7711;46.634;14.318;2022-07-05T00:20:40;6.78;;;6.00;;
15216;SDS011;7711;46.634;14.318;2022-07-05T00:23:08;7.35;;;6.28;;
15216;SDS011;7711;46.634;14.318;2022-07-05T00:25:37;8.07;;;6.50;;
15216;SDS011;7711;46.634;14.318;2022-07-05T00:28:05;10.75;;;6.15;;
15216;SDS011;7711;46.634;14.318;2022-07-05T00:30:33;10.07;;;5.70;;
15216;SDS011;7711;46.634;14.318;2022-07-05T00:33:05;7.57;;;5.53;;
15216;SDS011;7711;46.634;14.318;2022-07-05T00:35:37;6.60;;;5.85;;
15216;SDS011;7711;46.634;14.318;2022-07-05T00:38:04;6.68;;;5.32;;
15216;SDS011;7711;46.634;14.318;2022-07-05T00:40:32;7.50;;;5.53;;
15216;SDS011;7711;46.634;14.318;2022-07-05T00:43:00;6.03;;;5.30;;
15216;SDS011;7711;46.634;14.318;2022-07-05T00:45:27;5.88;;;5.32;;
15216;SDS011;7711;46.634;14.318;2022-07-05T00:47:55;8.30;;;5.38;;
15216;SDS011;7711;46.634;14.318;2022-07-05T00:50:24;5.90;;;5.18;;
15216;SDS011;7711;46.634;14.318;2022-07-05T00:52:55;6.95;;;5.03;;
15216;SDS011;7711;46.634;14.318;2022-07-05T00:55:23;5.53;;;4.90;;
15216;SDS011;7711;46.634;14.318;2022-07-05T00:57:51;5.97;;;5.00;;
15216;SDS011;7711;46.634;14.318;2022-07-05T01:00:23;6.78;;;4.80;;
15216;SDS011;7711;46.634;14.318;2022-07-05T01:02:51;5.75;;;5.13;;
15216;SDS011;7711;46.634;14.318;2022-07-05T01:05:19;6.90;;;5.05;;
15216;SDS011;7711;46.634;14.318;2022-07-05T01:07:48;6.03;;;5.47;;
15216;SDS011;7711;46.634;14.318;2022-07-05T01:10:19;6.70;;;5.32;;
15216;SDS011;7711;46.634;14.318;2022-07-05T01:12:47;176.18;;;29.08;;
15216;SDS011;7711;46.634;14.318;2022-07-05T01:15:20;5.32;;;4.82;;
15216;SDS011;7711;46.634;14.318;2022-07-05T01:17:48;6.10;;;5.50;;
15216;SDS011;7711;46.634;14.318;2022-07-05T01:20:15;6.68;;;5.55;;
15216;SDS011;7711;46.634;14.318;2022-07-05T01:22:54;7.40;;;5.28;;
15216;SDS011;7711;46.634;14.318;2022-07-05T01:25:22;6.10;;;5.22;;
15216;SDS011;7711;46.634;14.318;2022-07-05T01:27:50;6.60;;;5.38;;
15216;SDS011;7711;46.634;14.318;2022-07-05T01:30:21;6.55;;;5.95;;
15216;SDS011;7711;46.634;14.318;2022-07-05T01:32:48;5.93;;;5.32;;
15216;SDS011;7711;46.634;14.318;2022-07-05T01:35:18;5.90;;;5.38;;
15216;SDS011;7711;46.634;14.318;2022-07-05T01:37:50;9.18;;;6.38;;
15216;SDS011;7711;46.634;14.318;2022-07-05T01:40:19;7.65;;;5.85;;
15216;SDS011;7711;46.634;14.318;2022-07-05T01:42:47;8.18;;;6.50;;
15216;SDS011;7711;46.634;14.318;2022-07-05T01:45:17;6.90;;;5.63;;
15216;SDS011;7711;46.634;14.318;2022-07-05T01:48:00;6.22;;;5.63;;
15216;SDS011;7711;46.634;14.318;2022-07-05T01:50:28;6.35;;;5.72;;
15216;SDS011;7711;46.634;14.318;2022-07-05T01:52:55;7.07;;;5.72;;
15216;SDS011;7711;46.634;14.318;2022-07-05T01:55:27;5.85;;;5.28;;
15216;SDS011;7711;46.634;14.318;2022-07-05T01:57:54;5.82;;;5.32;;
15216;SDS011;7711;46.634;14.318;2022-07-05T02:00:21;7.50;;;6.13;;
15216;SDS011;7711;46.634;14.318;2022-07-05T02:02:48;6.30;;;5.70;;
15216;SDS011;7711;46.634;14.318;2022-07-05T02:05:16;6.50;;;5.80;;
15216;SDS011;7711;46.634;14.318;2022-07-05T02:07:46;6.90;;;6.03;;
15216;SDS011;7711;46.634;14.318;2022-07-05T02:10:14;7.30;;;6.05;;
15216;SDS011;7711;46.634;14.318;2022-07-05T02:12:43;6.30;;;5.70;;
15216;SDS011;7711;46.634;14.318;2022-07-05T02:15:10;8.45;;;5.82;;
15216;SDS011;7711;46.634;14.318;2022-07-05T02:17:37;6.78;;;5.57;;
15216;SDS011;7711;46.634;14.318;2022-07-05T02:20:05;9.15;;;5.65;;
15216;SDS011;7711;46.634;14.318;2022-07-05T02:22:33;6.75;;;5.30;;
15216;SDS011;7711;46.634;14.318;2022-07-05T02:25:00;8.60;;;5.70;;
15216;SDS011;7711;46.634;14.318;2022-07-05T02:27:27;6.53;;;5.90;;
15216;SDS011;7711;46.634;14.318;2022-07-05T02:29:56;6.82;;;5.80;;
15216;SDS011;7711;46.634;14.318;2022-07-05T02:32:23;7.07;;;5.30;;
15216;SDS011;7711;46.634;14.318;2022-07-05T02:34:50;6.50;;;5.90;;
15216;SDS011;7711;46.634;14.318;2022-07-05T02:37:17;6.65;;;5.95;;
15216;SDS011;7711;46.634;14.318;2022-07-05T02:39:44;6.47;;;5.82;;
15216;SDS011;7711;46.634;14.318;2022-07-05T02:42:12;7.68;;;5.78;;
15216;SDS011;7711;46.634;14.318;2022-07-05T02:44:39;10.98;;;7.13;;
15216;SDS011;7711;46.634;14.318;2022-07-05T02:47:07;7.78;;;6.05;;
15216;SDS011;7711;46.634;14.318;2022-07-05T02:49:35;7.28;;;6.22;;
15216;SDS011;7711;46.634;14.318;2022-07-05T02:52:02;7.70;;;5.78;;
15216;SDS011;7711;46.634;14.318;2022-07-05T02:54:31;8.93;;;6.00;;
15216;SDS011;7711;46.634;14.318;2022-07-05T02:56:59;6.97;;;5.80;;
15216;SDS011;7711;46.634;14.318;2022-07-05T02:59:26;7.75;;;6.65;;
15216;SDS011;7711;46.634;14.318;2022-07-05T03:01:55;7.30;;;6.05;;
15216;SDS011;7711;46.634;14.318;2022-07-05T03:04:23;6.07;;;5.57;;
15216;SDS011;7711;46.634;14.318;2022-07-05T03:06:50;7.00;;;5.63;;
15216;SDS011;7711;46.634;14.318;2022-07-05T03:09:18;7.97;;;6.13;;
15216;SDS011;7711;46.634;14.318;2022-07-05T03:11:45;6.20;;;5.57;;
15216;SDS011;7711;46.634;14.318;2022-07-05T03:14:14;7.00;;;5.63;;
15216;SDS011;7711;46.634;14.318;2022-07-05T03:16:41;7.10;;;5.88;;
15216;SDS011;7711;46.634;14.318;2022-07-05T03:19:09;6.68;;;5.97;;
15216;SDS011;7711;46.634;14.318;2022-07-05T03:21:40;7.18;;;5.82;;
15216;SDS011;7711;46.634;14.318;2022-07-05T03:24:07;7.47;;;5.85;;
15216;SDS011;7711;46.634;14.318;2022-07-05T03:26:35;8.48;;;6.55;;
15216;SDS011;7711;46.634;14.318;2022-07-05T03:29:03;8.35;;;6.40;;
15216;SDS011;7711;46.634;14.318;2022-07-05T03:31:31;9.50;;;6.35;;
15216;SDS011;7711;46.634;14.318;2022-07-05T03:33:58;9.77;;;6.75;;
15216;SDS011;7711;46.634;14.318;2022-07-05T03:36:25;8.90;;;6.43;;
15216;SDS011;7711;46.634;14.318;2022-07-05T03:38:54;7.43;;;6.60;;
15216;SDS011;7711;46.634;14.318;2022-07-05T03:41:23;7.10;;;6.40;;
15216;SDS011;7711;46.634;14.318;2022-07-05T03:43:50;8.88;;;6.63;;
15216;SDS011;7711;46.634;14.318;2022-07-05T03:46:17;10.80;;;6.55;;
15216;SDS011;7711;46.634;14.318;2022-07-05T03:48:44;7.40;;;5.90;;
15216;SDS011;7711;46.634;14.318;2022-07-05T03:51:11;8.32;;;6.50;;
15216;SDS011;7711;46.634;14.318;2022-07-05T03:53:39;7.85;;;6.90;;
15216;SDS011;7711;46.634;14.318;2022-07-05T03:56:09;10.88;;;7.18;;
15216;SDS011;7711;46.634;14.318;2022-07-05T03:58:39;8.20;;;7.35;;
15216;SDS011;7711;46.634;14.318;2022-07-05T04:01:06;10.10;;;7.47;;
15216;SDS011;7711;46.634;14.318;2022-07-05T04:03:36;9.45;;;7.50;;
15216;SDS011;7711;46.634;14.318;2022-07-05T04:06:04;9.75;;;7.82;;
15216;SDS011;7711;46.634;14.318;2022-07-05T04:08:31;7.80;;;7.03;;
15216;SDS011;7711;46.634;14.318;2022-07-05T04:11:01;9.75;;;7.28;;
15216;SDS011;7711;46.634;14.318;2022-07-05T04:13:31;7.63;;;6.82;;
15216;SDS011;7711;46.634;14.318;2022-07-05T04:16:03;8.13;;;6.60;;
15216;SDS011;7711;46.634;14.318;2022-07-05T04:18:30;8.15;;;6.63;;
15216;SDS011;7711;46.634;14.318;2022-07-05T04:20:58;7.28;;;6.57;;
15216;SDS011;7711;46.634;14.318;2022-07-05T04:23:27;6.28;;;5.68;;
15216;SDS011;7711;46.634;14.318;2022-07-05T04:25:54;7.35;;;6.53;;
15216;SDS011;7711;46.634;14.318;2022-07-05T04:28:21;7.95;;;6.50;;
15216;SDS011;7711;46.634;14.318;2022-07-05T04:30:50;7.57;;;6.82;;
15216;SDS011;7711;46.634;14.318;2022-07-05T04:33:17;7.75;;;6.35;;
15216;SDS011;7711;46.634;14.318;2022-07-05T04:35:44;8.60;;;6.40;;
15216;SDS011;7711;46.634;14.318;2022-07-05T04:38:14;6.50;;;5.88;;
15216;SDS011;7711;46.634;14.318;2022-07-05T04:40:41;6.75;;;6.10;;
15216;SDS011;7711;46.634;14.318;2022-07-05T04:43:08;8.30;;;6.93;;
15216;SDS011;7711;46.634;14.318;2022-07-05T04:45:35;11.90;;;7.40;;
15216;SDS011;7711;46.634;14.318;2022-07-05T04:48:04;10.02;;;7.80;;
15216;SDS011;7711;46.634;14.318;2022-07-05T04:50:32;8.20;;;7.40;;
15216;SDS011;7711;46.634;14.318;2022-07-05T04:52:59;9.10;;;7.22;;
15216;SDS011;7711;46.634;14.318;2022-07-05T04:55:26;9.27;;;7.18;;
15216;SDS011;7711;46.634;14.318;2022-07-05T04:57:53;10.25;;;7.55;;
15216;SDS011;7711;46.634;14.318;2022-07-05T05:00:21;9.13;;;7.65;;
15216;SDS011;7711;46.634;14.318;2022-07-05T05:02:48;8.20;;;7.40;;
15216;SDS011;7711;46.634;14.318;2022-07-05T05:05:19;10.10;;;7.47;;
15216;SDS011;7711;46.634;14.318;2022-07-05T05:07:46;10.25;;;8.15;;
15216;SDS011;7711;46.634;14.318;2022-07-05T05:10:15;8.82;;;7.18;;
15216;SDS011;7711;46.634;14.318;2022-07-05T05:12:42;10.52;;;7.35;;
15216;SDS011;7711;46.634;14.318;2022-07-05T05:15:13;8.65;;;6.95;;
15216;SDS011;7711;46.634;14.318;2022-07-05T05:17:41;8.43;;;6.35;;
15216;SDS011;7711;46.634;14.318;2022-07-05T05:20:10;8.23;;;6.63;;
15216;SDS011;7711;46.634;14.318;2022-07-05T05:22:40;7.88;;;6.85;;
15216;SDS011;7711;46.634;14.318;2022-07-05T05:25:08;7.60;;;6.45;;
15216;SDS011;7711;46.634;14.318;2022-07-05T05:27:39;7.85;;;7.10;;
15216;SDS011;7711;46.634;14.318;2022-07-05T05:30:08;8.63;;;6.82;;
15216;SDS011;7711;46.634;14.318;2022-07-05T05:32:36;8.13;;;6.90;;
15216;SDS011;7711;46.634;14.318;2022-07-05T05:35:03;7.05;;;6.35;;
15216;SDS011;7711;46.634;14.318;2022-07-05T05:37:45;7.22;;;6.53;;
15216;SDS011;7711;46.634;14.318;2022-07-05T05:40:14;7.70;;;6.40;;
15216;SDS011;7711;46.634;14.318;2022-07-05T05:42:41;9.48;;;7.20;;
15216;SDS011;7711;46.634;14.318;2022-07-05T05:45:09;8.15;;;6.78;;
15216;SDS011;7711;46.634;14.318;2022-07-05T05:47:46;8.07;;;6.90;;
15216;SDS011;7711;46.634;14.318;2022-07-05T05:50:19;7.20;;;6.47;;
15216;SDS011;7711;46.634;14.318;2022-07-05T05:52:48;9.52;;;6.68;;
15216;SDS011;7711;46.634;14.318;2022-07-05T05:55:16;8.52;;;6.00;;
15216;SDS011;7711;46.634;14.318;2022-07-05T05:57:49;6.50;;;5.90;;
15216;SDS011;7711;46.634;14.318;2022-07-05T06:00:16;6.72;;;6.05;;
15216;SDS011;7711;46.634;14.318;2022-07-05T06:02:45;6.88;;;6.28;;
15216;SDS011;7711;46.634;14.318;2022-07-05T06:05:13;7.25;;;6.10;;
15216;SDS011;7711;46.634;14.318;2022-07-05T06:07:43;7.00;;;6.30;;
15216;SDS011;7711;46.634;14.318;2022-07-05T06:10:15;6.90;;;6.30;;
15216;SDS011;7711;46.634;14.318;2022-07-05T06:12:45;6.43;;;5.72;;
15216;SDS011;7711;46.634;14.318;2022-07-05T06:15:12;6.68;;;6.00;;
15216;SDS011;7711;46.634;14.318;2022-07-05T06:17:40;7.18;;;6.00;;
15216;SDS011;7711;46.634;14.318;2022-07-05T06:20:08;6.32;;;5.70;;
15216;SDS011;7711;46.634;14.318;2022-07-05T06:22:36;6.75;;;6.15;;
15216;SDS011;7711;46.634;14.318;2022-07-05T06:25:04;6.63;;;5.95;;
15216;SDS011;7711;46.634;14.318;2022-07-05T06:27:38;6.65;;;5.80;;
15216;SDS011;7711;46.634;14.318;2022-07-05T06:30:06;6.07;;;5.13;;
15216;SDS011;7711;46.634;14.318;2022-07-05T06:32:34;6.45;;;5.30;;
15216;SDS011;7711;46.634;14.318;2022-07-05T06:35:02;6.22;;;5.40;;
15216;SDS011;7711;46.634;14.318;2022-07-05T06:37:39;5.82;;;5.22;;
15216;SDS011;7711;46.634;14.318;2022-07-05T06:40:08;5.68;;;5.07;;
15216;SDS011;7711;46.634;14.318;2022-07-05T06:42:39;5.40;;;4.65;;
15216;SDS011;7711;46.634;14.318;2022-07-05T06:45:11;5.75;;;5.25;;
15216;SDS011;7711;46.634;14.318;2022-07-05T06:47:38;5.53;;;5.03;;
15216;SDS011;7711;46.634;14.318;2022-07-05T06:50:06;6.25;;;5.45;;
15216;SDS011;7711;46.634;14.318;2022-07-05T06:52:35;6.22;;;5.18;;
15216;SDS011;7711;46.634;14.318;2022-07-05T06:55:08;9.15;;;5.32;;
15216;SDS011;7711;46.634;14.318;2022-07-05T06:57:35;5.22;;;4.72;;
15216;SDS011;7711;46.634;14.318;2022-07-05T07:00:07;5.82;;;5.13;;
15216;SDS011;7711;46.634;14.318;2022-07-05T07:02:35;7.28;;;4.80;;
15216;SDS011;7711;46.634;14.318;2022-07-05T07:05:03;6.25;;;4.90;;
15216;SDS011;7711;46.634;14.318;2022-07-05T07:07:32;5.97;;;5.38;;
15216;SDS011;7711;46.634;14.318;2022-07-05T07:10:17;5.03;;;4.15;;
15216;SDS011;7711;46.634;14.318;2022-07-05T07:12:46;5.93;;;4.35;;
15216;SDS011;7711;46.634;14.318;2022-07-05T07:15:13;5.15;;;4.07;;
15216;SDS011;7711;46.634;14.318;2022-07-05T07:17:40;5.15;;;4.70;;
15216;SDS011;7711;46.634;14.318;2022-07-05T07:20:13;4.70;;;4.25;;
15216;SDS011;7711;46.634;14.318;2022-07-05T07:22:40;6.78;;;4.53;;
15216;SDS011;7711;46.634;14.318;2022-07-05T07:25:12;5.80;;;4.55;;
15216;SDS011;7711;46.634;14.318;2022-07-05T07:27:45;5.35;;;4.85;;
15216;SDS011;7711;46.634;14.318;2022-07-05T07:30:17;5.05;;;4.63;;
15216;SDS011;7711;46.634;14.318;2022-07-05T07:32:49;5.10;;;4.60;;
15216;SDS011;7711;46.634;14.318;2022-07-05T07:35:19;6.65;;;4.63;;
15216;SDS011;7711;46.634;14.318;2022-07-05T07:37:49;5.07;;;4.60;;
15216;SDS011;7711;46.634;14.318;2022-07-05T07:40:18;4.20;;;3.80;;
15216;SDS011;7711;46.634;14.318;2022-07-05T07:42:45;4.30;;;3.90;;
15216;SDS011;7711;46.634;14.318;2022-07-05T07:45:15;4.30;;;3.90;;
15216;SDS011;7711;46.634;14.318;2022-07-05T07:47:43;4.75;;;4.18;;
15216;SDS011;7711;46.634;14.318;2022-07-05T07:50:10;4.97;;;4.30;;
15216;SDS011;7711;46.634;14.318;2022-07-05T07:52:40;4.65;;;4.22;;
15216;SDS011;7711;46.634;14.318;2022-07-05T07:55:07;4.43;;;4.10;;
15216;SDS011;7711;46.634;14.318;2022-07-05T07:57:35;5.07;;;4.18;;
15216;SDS011;7711;46.634;14.318;2022-07-05T08:00:02;4.55;;;4.10;;
15216;SDS011;7711;46.634;14.318;2022-07-05T08:02:32;3.95;;;3.60;;
15216;SDS011;7711;46.634;14.318;2022-07-05T08:04:59;4.55;;;4.00;;
15216;SDS011;7711;46.634;14.318;2022-07-05T08:07:27;3.95;;;3.65;;
15216;SDS011;7711;46.634;14.318;2022-07-05T08:09:54;4.05;;;3.75;;
15216;SDS011;7711;46.634;14.318;2022-07-05T08:12:24;4.40;;;4.00;;
15216;SDS011;7711;46.634;14.318;2022-07-05T08:14:51;4.90;;;4.00;;
15216;SDS011;7711;46.634;14.318;2022-07-05T08:17:21;4.50;;;4.10;;
15216;SDS011;7711;46.634;14.318;2022-07-05T08:19:50;5.35;;;3.75;;
15216;SDS011;7711;46.634;14.318;2022-07-05T08:22:35;4.60;;;4.15;;
15216;SDS011;7711;46.634;14.318;2022-07-05T08:25:05;5.40;;;4.22;;
15216;SDS011;7711;46.634;14.318;2022-07-05T08:27:44;4.00;;;3.70;;
15216;SDS011;7711;46.634;14.318;2022-07-05T08:30:11;4.32;;;3.90;;
15216;SDS011;7711;46.634;14.318;2022-07-05T08:32:38;5.57;;;3.60;;
15216;SDS011;7711;46.634;14.318;2022-07-05T08:35:08;4.20;;;3.60;;
15216;SDS011;7711;46.634;14.318;2022-07-05T08:37:38;4.15;;;3.75;;
15216;SDS011;7711;46.634;14.318;2022-07-05T08:40:05;4.28;;;3.75;;
15216;SDS011;7711;46.634;14.318;2022-07-05T08:42:34;4.63;;;4.10;;
15216;SDS011;7711;46.634;14.318;2022-07-05T08:45:02;4.95;;;3.90;;
15216;SDS011;7711;46.634;14.318;2022-07-05T08:47:30;4.28;;;3.88;;
15216;SDS011;7711;46.634;14.318;2022-07-05T08:50:01;4.50;;;4.10;;
15216;SDS011;7711;46.634;14.318;2022-07-05T08:52:32;4.13;;;3.72;;
15216;SDS011;7711;46.634;14.318;2022-07-05T08:55:00;4.45;;;3.60;;
15216;SDS011;7711;46.634;14.318;2022-07-05T08:57:28;5.22;;;3.55;;
15216;SDS011;7711;46.634;14.318;2022-07-05T08:59:57;3.65;;;3.35;;
15216;SDS011;7711;46.634;14.318;2022-07-05T09:02:24;4.07;;;3.75;;
15216;SDS011;7711;46.634;14.318;2022-07-05T09:04:51;4.28;;;3.88;;
15216;SDS011;7711;46.634;14.318;2022-07-05T09:07:21;4.15;;;3.78;;
15216;SDS011;7711;46.634;14.318;2022-07-05T09:09:53;3.97;;;3.50;;
15216;SDS011;7711;46.634;14.318;2022-07-05T09:12:24;3.80;;;3.50;;
15216;SDS011;7711;46.634;14.318;2022-07-05T09:14:53;4.25;;;3.75;;
15216;SDS011;7711;46.634;14.318;2022-07-05T09:17:23;4.20;;;3.90;;
15216;SDS011;7711;46.634;14.318;2022-07-05T09:22:45;4.05;;;3.42;;
15216;SDS011;7711;46.634;14.318;2022-07-05T09:25:16;4.43;;;3.58;;
15216;SDS011;7711;46.634;14.318;2022-07-05T09:27:51;3.95;;;3.63;;
15216;SDS011;7711;46.634;14.318;2022-07-05T09:30:23;4.35;;;3.53;;
15216;SDS011;7711;46.634;14.318;2022-07-05T09:35:39;4.43;;;3.60;;
15216;SDS011;7711;46.634;14.318;2022-07-05T09:38:18;5.90;;;3.53;;
15216;SDS011;7711;46.634;14.318;2022-07-05T09:40:47;3.55;;;3.25;;
15216;SDS011;7711;46.634;14.318;2022-07-05T09:43:17;3.70;;;3.40;;
15216;SDS011;7711;46.634;14.318;2022-07-05T09:46:00;6.00;;;3.47;;
15216;SDS011;7711;46.634;14.318;2022-07-05T09:48:29;4.65;;;3.28;;
15216;SDS011;7711;46.634;14.318;2022-07-05T09:51:04;5.78;;;3.40;;
15216;SDS011;7711;46.634;14.318;2022-07-05T09:53:43;4.60;;;3.20;;
15216;SDS011;7711;46.634;14.318;2022-07-05T09:56:13;3.15;;;2.92;;
15216;SDS011;7711;46.634;14.318;2022-07-05T09:58:40;4.63;;;3.25;;
15216;SDS011;7711;46.634;14.318;2022-07-05T10:01:24;3.30;;;3.00;;
15216;SDS011;7711;46.634;14.318;2022-07-05T10:03:55;3.17;;;2.92;;
15216;SDS011;7711;46.634;14.318;2022-07-05T10:06:26;4.38;;;3.15;;
15216;SDS011;7711;46.634;14.318;2022-07-05T10:08:54;4.22;;;2.78;;
15216;SDS011;7711;46.634;14.318;2022-07-05T10:11:23;3.45;;;3.17;;
15216;SDS011;7711;46.634;14.318;2022-07-05T10:13:52;3.25;;;2.95;;
15216;SDS011;7711;46.634;14.318;2022-07-05T10:16:24;4.75;;;3.20;;
15216;SDS011;7711;46.634;14.318;2022-07-05T10:18:53;3.70;;;3.00;;
15216;SDS011;7711;46.634;14.318;2022-07-05T10:21:22;5.63;;;3.30;;
15216;SDS011;7711;46.634;14.318;2022-07-05T10:23:51;3.33;;;3.00;;
15216;SDS011;7711;46.634;14.318;2022-07-05T10:26:21;3.33;;;2.72;;
15216;SDS011;7711;46.634;14.318;2022-07-05T10:28:52;3.00;;;2.80;;
15216;SDS011;7711;46.634;14.318;2022-07-05T10:31:23;3.00;;;2.72;;
15216;SDS011;7711;46.634;14.318;2022-07-05T10:33:52;3.15;;;2.88;;
15216;SDS011;7711;46.634;14.318;2022-07-05T10:36:20;3.00;;;2.70;;
15216;SDS011;7711;46.634;14.318;2022-07-05T10:38:49;4.22;;;2.95;;
15216;SDS011;7711;46.634;14.318;2022-07-05T10:41:18;3.08;;;2.88;;
15216;SDS011;7711;46.634;14.318;2022-07-05T10:43:53;2.95;;;2.70;;
15216;SDS011;7711;46.634;14.318;2022-07-05T10:46:32;3.40;;;2.70;;
15216;SDS011;7711;46.634;14.318;2022-07-05T10:49:11;4.63;;;2.95;;
15216;SDS011;7711;46.634;14.318;2022-07-05T10:51:44;3.70;;;2.83;;
15216;SDS011;7711;46.634;14.318;2022-07-05T10:54:14;2.70;;;2.50;;
15216;SDS011;7711;46.634;14.318;2022-07-05T10:56:41;3.10;;;2.80;;
15216;SDS011;7711;46.634;14.318;2022-07-05T11:00:06;2.60;;;2.38;;
15216;SDS011;7711;46.634;14.318;2022-07-05T11:02:35;3.78;;;2.85;;
15216;SDS011;7711;46.634;14.318;2022-07-05T11:05:02;3.08;;;2.65;;
15216;SDS011;7711;46.634;14.318;2022-07-05T11:10:24;2.70;;;2.50;;
15216;SDS011;7711;46.634;14.318;2022-07-05T11:12:52;5.10;;;2.70;;
15216;SDS011;7711;46.634;14.318;2022-07-05T11:15:21;4.00;;;2.40;;
15216;SDS011;7711;46.634;14.318;2022-07-05T11:17:48;3.20;;;2.70;;
15216;SDS011;7711;46.634;14.318;2022-07-05T11:20:36;2.80;;;2.60;;
15216;SDS011;7711;46.634;14.318;2022-07-05T11:23:12;2.42;;;2.10;;
15216;SDS011;7711;46.634;14.318;2022-07-05T11:25:44;3.42;;;2.22;;
15216;SDS011;7711;46.634;14.318;2022-07-05T11:28:20;3.75;;;2.40;;
15216;SDS011;7711;46.634;14.318;2022-07-05T11:30:51;2.85;;;2.55;;
15216;SDS011;7711;46.634;14.318;2022-07-05T11:33:34;4.40;;;2.42;;
15216;SDS011;7711;46.634;14.318;2022-07-05T11:36:18;3.55;;;2.22;;
15216;SDS011;7711;46.634;14.318;2022-07-05T11:39:07;2.78;;;2.58;;
15216;SDS011;7711;46.634;14.318;2022-07-05T11:41:37;2.50;;;2.30;;
15216;SDS011;7711;46.634;14.318;2022-07-05T11:44:07;3.13;;;2.50;;
15216;SDS011;7711;46.634;14.318;2022-07-05T11:46:37;2.60;;;2.40;;
15216;SDS011;7711;46.634;14.318;2022-07-05T11:49:04;2.50;;;2.30;;
15216;SDS011;7711;46.634;14.318;2022-07-05T11:51:33;2.55;;;2.35;;
15216;SDS011;7711;46.634;14.318;2022-07-05T11:54:00;2.55;;;2.30;;
15216;SDS011;7711;46.634;14.318;2022-07-05T11:56:28;2.40;;;2.20;;
15216;SDS011;7711;46.634;14.318;2022-07-05T11:58:55;2.70;;;2.30;;
15216;SDS011;7711;46.634;14.318;2022-07-05T12:01:26;2.97;;;2.40;;
15216;SDS011;7711;46.634;14.318;2022-07-05T12:03:55;2.47;;;2.28;;
15216;SDS011;7711;46.634;14.318;2022-07-05T12:06:22;5.65;;;2.60;;
15216;SDS011;7711;46.634;14.318;2022-07-05T12:11:32;2.67;;;2.40;;
15216;SDS011;7711;46.634;14.318;2022-07-05T12:14:20;2.80;;;2.60;;
15216;SDS011;7711;46.634;14.318;2022-07-05T12:16:48;2.30;;;2.20;;
15216;SDS011;7711;46.634;14.318;2022-07-05T12:19:27;3.78;;;2.42;;
15216;SDS011;7711;46.634;14.318;2022-07-05T12:21:54;2.60;;;2.40;;
15216;SDS011;7711;46.634;14.318;2022-07-05T12:24:23;2.60;;;2.40;;
15216;SDS011;7711;46.634;14.318;2022-07-05T12:26:50;3.20;;;2.40;;
15216;SDS011;7711;46.634;14.318;2022-07-05T12:29:18;2.47;;;2.28;;
15216;SDS011;7711;46.634;14.318;2022-07-05T12:31:59;2.50;;;2.20;;
15216;SDS011;7711;46.634;14.318;2022-07-05T12:34:28;4.40;;;2.17;;
15216;SDS011;7711;46.634;14.318;2022-07-05T12:36:57;2.63;;;2.30;;
15216;SDS011;7711;46.634;14.318;2022-07-05T12:39:24;2.30;;;2.10;;
15216;SDS011;7711;46.634;14.318;2022-07-05T12:41:54;2.50;;;2.30;;
15216;SDS011;7711;46.634;14.318;2022-07-05T12:44:21;2.63;;;2.42;;
15216;SDS011;7711;46.634;14.318;2022-07-05T12:46:51;2.53;;;2.33;;
15216;SDS011;7711;46.634;14.318;2022-07-05T12:49:19;2.60;;;2.40;;
15216;SDS011;7711;46.634;14.318;2022-07-05T12:51:52;2.53;;;2.33;;
15216;SDS011;7711;46.634;14.318;2022-07-05T12:54:19;2.50;;;2.30;;
15216;SDS011;7711;46.634;14.318;2022-07-05T12:57:07;2.58;;;2.20;;
15216;SDS011;7711;46.634;14.318;2022-07-05T12:59:58;2.25;;;2.03;;
15216;SDS011;7711;46.634;14.318;2022-07-05T13:02:33;2.45;;;2.20;;
15216;SDS011;7711;46.634;14.318;2022-07-05T13:05:01;2.33;;;2.20;;
15216;SDS011;7711;46.634;14.318;2022-07-05T13:07:32;2.35;;;2.15;;
15216;SDS011;7711;46.634;14.318;2022-07-05T13:10:14;2.10;;;2.00;;
15216;SDS011;7711;46.634;14.318;2022-07-05T13:12:42;2.00;;;1.90;;
15216;SDS011;7711;46.634;14.318;2022-07-05T13:15:15;2.22;;;2.03;;
15216;SDS011;7711;46.634;14.318;2022-07-05T13:17:44;2.05;;;1.80;;
15216;SDS011;7711;46.634;14.318;2022-07-05T13:20:13;2.42;;;1.90;;
15216;SDS011;7711;46.634;14.318;2022-07-05T13:22:44;3.25;;;2.08;;
15216;SDS011;7711;46.634;14.318;2022-07-05T13:25:12;1.95;;;1.73;;
15216;SDS011;7711;46.634;14.318;2022-07-05T13:27:39;60.97;;;3.97;;
15216;SDS011;7711;46.634;14.318;2022-07-05T13:30:07;5.53;;;1.83;;
15216;SDS011;7711;46.634;14.318;2022-07-05T13:32:36;2.05;;;1.90;;
15216;SDS011;7711;46.634;14.318;2022-07-05T13:35:05;2.42;;;1.90;;
15216;SDS011;7711;46.634;14.318;2022-07-05T13:37:35;1.95;;;1.85;;
15216;SDS011;7711;46.634;14.318;2022-07-05T13:40:07;2.00;;;1.90;;
15216;SDS011;7711;46.634;14.318;2022-07-05T13:42:35;2.00;;;1.90;;
15216;SDS011;7711;46.634;14.318;2022-07-05T13:45:03;2.13;;;1.95;;
15216;SDS011;7711;46.634;14.318;2022-07-05T13:47:32;2.10;;;1.90;;
15216;SDS011;7711;46.634;14.318;2022-07-05T13:49:59;2.97;;;1.92;;
15216;SDS011;7711;46.634;14.318;2022-07-05T13:52:44;1.95;;;1.85;;
15216;SDS011;7711;46.634;14.318;2022-07-05T13:55:13;2.00;;;1.90;;
15216;SDS011;7711;46.634;14.318;2022-07-05T13:57:40;2.47;;;2.00;;
15216;SDS011;7711;46.634;14.318;2022-07-05T14:00:09;2.05;;;1.85;;
15216;SDS011;7711;46.634;14.318;2022-07-05T14:02:40;2.08;;;1.80;;
15216;SDS011;7711;46.634;14.318;2022-07-05T14:05:12;2.30;;;2.10;;
15216;SDS011;7711;46.634;14.318;2022-07-05T14:07:44;5.00;;;2.20;;
15216;SDS011;7711;46.634;14.318;2022-07-05T14:10:13;2.30;;;2.10;;
15216;SDS011;7711;46.634;14.318;2022-07-05T14:12:42;3.25;;;2.00;;
15216;SDS011;7711;46.634;14.318;2022-07-05T14:15:10;2.47;;;1.95;;
15216;SDS011;7711;46.634;14.318;2022-07-05T14:17:38;2.10;;;1.90;;
15216;SDS011;7711;46.634;14.318;2022-07-05T14:20:11;2.33;;;2.13;;
15216;SDS011;7711;46.634;14.318;2022-07-05T14:22:39;2.30;;;2.10;;
15216;SDS011;7711;46.634;14.318;2022-07-05T14:25:07;3.00;;;2.05;;
15216;SDS011;7711;46.634;14.318;2022-07-05T14:27:36;2.00;;;1.90;;
15216;SDS011;7711;46.634;14.318;2022-07-05T14:30:04;2.20;;;2.00;;
15216;SDS011;7711;46.634;14.318;2022-07-05T14:32:35;2.15;;;2.00;;
15216;SDS011;7711;46.634;14.318;2022-07-05T14:35:05;2.42;;;2.13;;
15216;SDS011;7711;46.634;14.318;2022-07-05T14:37:33;2.25;;;2.05;;
15216;SDS011;7711;46.634;14.318;2022-07-05T14:40:03;2.15;;;1.98;;
15216;SDS011;7711;46.634;14.318;2022-07-05T14:42:33;3.55;;;2.03;;
15216;SDS011;7711;46.634;14.318;2022-07-05T14:45:02;2.22;;;2.03;;
15216;SDS011;7711;46.634;14.318;2022-07-05T14:47:32;2.08;;;1.88;;
15216;SDS011;7711;46.634;14.318;2022-07-05T14:50:02;2.33;;;2.00;;
15216;SDS011;7711;46.634;14.318;2022-07-05T14:52:32;1.98;;;1.88;;
15216;SDS011;7711;46.634;14.318;2022-07-05T14:55:00;2.45;;;2.00;;
15216;SDS011;7711;46.634;14.318;2022-07-05T14:57:27;2.72;;;2.10;;
15216;SDS011;7711;46.634;14.318;2022-07-05T14:59:58;2.10;;;1.90;;
15216;SDS011;7711;46.634;14.318;2022-07-05T15:02:27;2.10;;;2.00;;
15216;SDS011;7711;46.634;14.318;2022-07-05T15:04:55;2.38;;;1.85;;
15216;SDS011;7711;46.634;14.318;2022-07-05T15:07:22;2.20;;;2.00;;
15216;SDS011;7711;46.634;14.318;2022-07-05T15:09:53;2.28;;;2.10;;
15216;SDS011;7711;46.634;14.318;2022-07-05T15:12:22;3.10;;;2.33;;
15216;SDS011;7711;46.634;14.318;2022-07-05T15:14:52;2.22;;;1.92;;